Terminal Aerodrome Forecast
Issued by NWS Wilmington, OH

Current Version | Previous Version | Text Only | Print | Product List | Glossary Off
Versions: 1 2 3 4 5 6 7 8 9 10 11 12 13 14 15 16 17 18 19 20 21

000
FTUS41 KILN 222300
TAFCMH
TAF
KCMH 222336Z 2300/2324 22005KT P6SM SCT250
     FM231200 24006KT P6SM VCTS BKN040CB
     FM231500 27010KT P6SM VCTS OVC040CB
     FM231800 32010KT P6SM BKN040=

USA.gov is the U.S. government's official web portal to all federal, state and local government web resources and services.